ADDS METAR Data INFO
IDs: Format: Raw Decoded Include TAF

Data at: 1848 UTC 17 Oct 2017

KSNL 171835Z AUTO 21012G16KT 10SM CLR 21/06 A3023 RMK AO2 T02090059
KSNL 171815Z AUTO 21013G16KT 10SM CLR 21/06 A3024 RMK AO2 T02110061
KSNL 171755Z AUTO 19013G17KT 10SM CLR 20/06 A3025 RMK AO2 T02020060 10205 20065
KSNL 171735Z AUTO 19009G15KT 170V230 10SM CLR 20/06 A3026 RMK AO2 T02030061
KSNL 171715Z AUTO 19012G16KT 10SM CLR 19/06 A3027 RMK AO2 T01940056
KSNL 171655Z AUTO 20013G18KT 10SM CLR 19/06 A3028 RMK AO2 T01910063
KSNL 171635Z AUTO 18009G14KT 10SM CLR 18/07 A3028 RMK AO2 T01820070
KSNL 171615Z AUTO 19010G18KT 10SM CLR 17/07 A3029 RMK AO2 T01730066
KSNL 171555Z AUTO 19011G15KT 10SM CLR 16/07 A3029 RMK AO2 T01630069
KSNL 171535Z AUTO 19011KT 10SM CLR 16/07 A3029 RMK AO2 T01570067
KSNL 171515Z AUTO 18010KT 10SM CLR 14/07 A3029 RMK AO2 T01440066
KSNL 171455Z AUTO 18010KT 10SM CLR 13/07 A3029 RMK AO2 T01330066
KSNL 171435Z AUTO 20007KT 10SM CLR 12/06 A3029 RMK AO2 T01210064
KSNL 171415Z AUTO 20006KT 10SM CLR 11/06 A3028 RMK AO2 T01060062
KSNL 171355Z AUTO 20006KT 10SM CLR 10/06 A3028 RMK AO2 T00960056
KSNL 171335Z AUTO 19005KT 10SM CLR 09/05 A3027 RMK AO2 T00850054
KSNL 171315Z AUTO 20006KT 10SM CLR 08/05 A3026 RMK AO2 T00760047
KSNL 171255Z AUTO 20006KT 10SM CLR 07/04 A3026 RMK AO2 T00720043
KSNL 171235Z AUTO 20007KT 10SM CLR 07/04 A3026 RMK AO2 T00660042
KSNL 171215Z AUTO 21005KT 10SM CLR 07/04 A3026 RMK AO2 T00730044
KSNL 171155Z AUTO 19008KT 10SM CLR 07/05 A3025 RMK AO2 T00740046 10095 20057
KSNL 171135Z AUTO 19008KT 10SM CLR 07/05 A3025 RMK AO2 T00720046
KSNL 171115Z AUTO 20006KT 10SM CLR 07/04 A3026 RMK AO2 T00700044
KSNL 171055Z AUTO 19006KT 10SM CLR 06/04 A3026 RMK AO2 T00600037
KSNL 171035Z AUTO 18004KT 10SM CLR 07/04 A3026 RMK AO2 T00670041
KSNL 171015Z AUTO 19004KT 10SM CLR 06/05 A3026 RMK AO2 T00620045
KSNL 170955Z AUTO 19003KT 10SM CLR 08/04 A3026 RMK AO2 T00800043
KSNL 170935Z AUTO 20004KT 10SM CLR 07/05 A3026 RMK AO2 T00740045
KSNL 170915Z AUTO 20004KT 10SM CLR 07/04 A3026 RMK AO2 T00700044
KSNL 170855Z AUTO 20003KT 10SM CLR 08/05 A3026 RMK AO2 T00770046
KSNL 170835Z AUTO 19004KT 10SM CLR 08/05 A3027 RMK AO2 T00760047
KSNL 170815Z AUTO 19004KT 10SM CLR 08/05 A3027 RMK AO2 T00800050
KSNL 170755Z AUTO 19003KT 10SM CLR 08/05 A3028 RMK AO2 T00840049
KSNL 170735Z AUTO 19003KT 10SM CLR 09/05 A3028 RMK AO2 T00910050
KSNL 170715Z AUTO 18003KT 10SM CLR 09/05 A3028 RMK AO2 T00930050
KSNL 170655Z AUTO 16004KT 10SM CLR 09/05 A3028 RMK AO2 T00910053
KSNL 170635Z AUTO 17003KT 10SM CLR 08/06 A3028 RMK AO2 T00800058
KSNL 170615Z AUTO 18003KT 10SM CLR 08/06 A3029 RMK AO2 T00780059
KSNL 170555Z AUTO 19003KT 10SM CLR 08/06 A3029 RMK AO2 T00830060 10160 20076 402080057
KSNL 170535Z AUTO 18003KT 10SM CLR 09/05 A3029 RMK AO2 T00900054
KSNL 170515Z AUTO 00000KT 10SM CLR 10/05 A3029 RMK AO2 T00950054
KSNL 170455Z AUTO 16003KT 10SM CLR 10/06 A3029 RMK AO2 T00980059
KSNL 170435Z AUTO 17003KT 10SM CLR 10/06 A3029 RMK AO2 T00950061
KSNL 170415Z AUTO 00000KT 10SM CLR 10/06 A3030 RMK AO2 T00970061
KSNL 170355Z AUTO 19003KT 10SM CLR 10/06 A3029 RMK AO2 T00990060
KSNL 170335Z AUTO 00000KT 10SM CLR 11/05 A3029 RMK AO2 T01140053
KSNL 170315Z AUTO 00000KT 10SM CLR 12/05 A3029 RMK AO2 T01180049
KSNL 170255Z AUTO 15004KT 10SM CLR 11/06 A3029 RMK AO2 T01120055
KSNL 170230Z AUTO 14005KT 10SM CLR 13/05 A3029 RMK AO2 T01250051
KSNL 170215Z AUTO 14004KT 10SM CLR 12/06 A3029 RMK AO2 T01230055
KSNL 170150Z AUTO 15004KT 10SM CLR 13/05 A3029 RMK AO2 T01330052
KSNL 170135Z AUTO 15005KT 10SM CLR 14/06 A3029 RMK AO2 T01350056
KSNL 170115Z AUTO 14004KT 10SM CLR 14/06 A3029 RMK AO2 T01400055
KSNL 170055Z AUTO 14005KT 10SM CLR 14/06 A3029 RMK AO2 T01390060
KSNL 170035Z AUTO 14003KT 10SM CLR 15/06 A3029 RMK AO2 T01510055
KSNL 170015Z AUTO 00000KT 10SM CLR 16/05 A3029 RMK AO2 T01600049
KSNL 162355Z AUTO 17003KT 10SM CLR 16/05 A3029 RMK AO2 T01620049 10208 20162
KSNL 162335Z AUTO 16004KT 10SM CLR 17/05 A3029 RMK AO2 T01710045
KSNL 162315Z AUTO 17004KT 10SM CLR 19/04 A3029 RMK AO2 T01850039
KSNL 162255Z AUTO 18004KT 7SM CLR 19/03 A3029 RMK AO2 T01930033
KSNL 162235Z AUTO 10003KT 10SM CLR 20/03 A3029 RMK AO2 T02000032
KSNL 162215Z AUTO 10003KT 10SM CLR 20/03 A3030 RMK AO2 T02040028
KSNL 162155Z AUTO 07003KT 10SM CLR 20/02 A3030 RMK AO2 T02010022
KSNL 162135Z AUTO 14005KT 10SM CLR 20/03 A3031 RMK AO2 T02020026
KSNL 162115Z AUTO 13003KT 10SM CLR 21/03 A3031 RMK AO2 T02060027
KSNL 162055Z AUTO 08005KT 10SM CLR 21/03 A3031 RMK AO2 T02050028
KSNL 162035Z AUTO 14004KT 10SM CLR 20/03 A3032 RMK AO2 T02040026
KSNL 162015Z AUTO 12003KT 10SM CLR 21/03 A3033 RMK AO2 T02050026
KSNL 161955Z AUTO 03003KT 10SM CLR 20/03 A3034 RMK AO2 T02000025
KSNL 161935Z AUTO 11006KT 10SM CLR 20/02 A3035 RMK AO2 T02000023
KSNL 161915Z AUTO 12005KT 10SM CLR 20/02 A3037 RMK AO2 T01980022
KSNL 161855Z AUTO 00000KT 10SM CLR 19/02 A3038 RMK AO2 T01940016
KSNL 161835Z AUTO 17004KT 10SM CLR 20/02 A3039 RMK AO2 T01950021
KSNL 161815Z AUTO 06003KT 10SM CLR 19/03 A3041 RMK AO2 T01890025
KSNL 161755Z AUTO 11006KT 10SM CLR 19/03 A3042 RMK AO2 T01880030 10190 20057
KSNL 161735Z AUTO 09006KT 10SM CLR 19/02 A3043 RMK AO2 T01880023
KSNL 161715Z AUTO 11004KT 10SM CLR 18/03 A3044 RMK AO2 T01800029
KSNL 161655Z AUTO 08005KT 10SM CLR 18/03 A3044 RMK AO2 T01760031
KSNL 161635Z AUTO 07003KT 10SM CLR 17/03 A3045 RMK AO2 T01690032
KSNL 161615Z AUTO 00000KT 10SM CLR 16/03 A3045 RMK AO2 T01630033
KSNL 161555Z AUTO 09003KT 10SM CLR 16/04 A3045 RMK AO2 T01610035
KSNL 161535Z AUTO 08004KT 10SM CLR 15/04 A3045 RMK AO2 T01480041
KSNL 161515Z AUTO 12004KT 10SM CLR 14/04 A3045 RMK AO2 T01410038
KSNL 161455Z AUTO 00000KT 10SM CLR 13/04 A3045 RMK AO2 T01340040
KSNL 161435Z AUTO 00000KT 10SM CLR 12/05 A3045 RMK AO2 T01200053
KSNL 161415Z AUTO 00000KT 10SM CLR 11/06 A3045 RMK AO2 T01080057
KSNL 161355Z AUTO 00000KT 10SM CLR 10/07 A3045 RMK AO2 T00980065
KSNL 161335Z AUTO 00000KT 10SM CLR 08/06 A3044 RMK AO2 T00810059
KSNL 161315Z AUTO 00000KT 10SM CLR 06/05 A3044 RMK AO2 T00630046
KSNL 161255Z AUTO 00000KT 10SM CLR 07/03 A3044 RMK AO2 T00660034
KSNL 161230Z AUTO 36003KT 10SM CLR 07/04 A3043 RMK AO2 T00650035
KSNL 161215Z AUTO 36003KT 10SM CLR 07/04 A3043 RMK AO2 T00650035
KSNL 161155Z AUTO 01003KT 10SM CLR 06/04 A3043 RMK AO2 T00640036 10081 20063
KSNL 161135Z AUTO 36003KT 10SM CLR 07/04 A3043 RMK AO2 T00670035
KSNL 161115Z AUTO 36003KT 10SM CLR 07/04 A3042 RMK AO2 T00670036
KSNL 161055Z AUTO 36003KT 10SM CLR 07/04 A3042 RMK AO2 T00670037
KSNL 161035Z AUTO 36003KT 10SM CLR 07/04 A3041 RMK AO2 T00690036
KSNL 161015Z AUTO 36003KT 10SM CLR 07/04 A3041 RMK AO2 T00690038
KSNL 160955Z AUTO 36003KT 10SM CLR 07/04 A3041 RMK AO2 T00670037
KSNL 160935Z AUTO 01003KT 10SM CLR 07/04 A3041 RMK AO2 T00690038
KSNL 160915Z AUTO 01003KT 10SM CLR 07/04 A3041 RMK AO2 T00700042
KSNL 160855Z AUTO 36003KT 10SM CLR 07/04 A3041 RMK AO2 T00710044
KSNL 160835Z AUTO 01003KT 10SM CLR 08/04 A3041 RMK AO2 T00780040
KSNL 160815Z AUTO 35003KT 10SM CLR 08/04 A3041 RMK AO2 T00800041
KSNL 160755Z AUTO 00000KT 10SM CLR 08/04 A3041 RMK AO2 T00800044
KSNL 160735Z AUTO 36003KT 10SM CLR 08/04 A3041 RMK AO2 T00750041
KSNL 160715Z AUTO 35004KT 10SM CLR 07/04 A3041 RMK AO2 T00670041
KSNL 160655Z AUTO 35003KT 10SM CLR 08/05 A3041 RMK AO2 T00750050